createdAt,value
2022-12-05T00:00:17.383Z,101937.78
2022-12-05T00:02:48.763Z,101936.16
2022-12-05T00:05:48.858Z,101946.28
2022-12-05T00:08:47.063Z,101939.25
2022-12-05T00:11:20.008Z,101943.78
2022-12-05T00:13:49.449Z,101946.59
2022-12-05T00:16:48.053Z,101956.41
2022-12-05T00:19:46.031Z,101955.72
2022-12-05T00:22:47.390Z,101965.69
2022-12-05T00:34:52.141Z,101974.72
2022-12-05T00:37:21.002Z,101980.22
2022-12-05T00:46:46.909Z,101980.78
2022-12-05T00:52:08.832Z,101961.41
2022-12-05T00:54:48.264Z,101960.75
2022-12-05T01:03:05.304Z,101969.53
2022-12-05T01:05:49.238Z,101953.66
2022-12-05T01:13:58.701Z,101959.59
2022-12-05T01:19:49.862Z,101970.38
2022-12-05T01:24:59.794Z,101977.59
2022-12-05T01:27:47.151Z,101979.31
2022-12-05T01:35:59.693Z,101970.94
2022-12-05T01:38:52.688Z,101976.03
2022-12-05T01:41:50.734Z,101968.72
2022-12-05T01:44:48.287Z,101971.47
2022-12-05T01:47:51.817Z,101975.00
2022-12-05T01:50:46.563Z,101967.19
2022-12-05T01:53:46.789Z,101971.47
2022-12-05T01:56:45.923Z,101967.38
2022-12-05T02:02:52.694Z,101974.75
2022-12-05T02:05:33.489Z,101973.97
2022-12-05T02:11:51.562Z,101984.03
2022-12-05T02:14:46.223Z,101986.78
2022-12-05T02:21:47.845Z,101991.09
2022-12-05T02:24:53.007Z,101998.28
2022-12-05T02:27:58.662Z,101987.63
2022-12-05T02:30:53.081Z,102008.06
2022-12-05T02:33:46.086Z,101992.97
2022-12-05T02:37:16.859Z,101983.97
2022-12-05T02:39:54.077Z,101977.22
2022-12-05T02:42:58.585Z,101976.22
2022-12-05T02:46:16.221Z,101977.88
2022-12-05T02:48:49.931Z,101980.81
2022-12-05T02:51:48.100Z,101979.13
2022-12-05T03:00:18.802Z,101984.22
2022-12-05T03:02:49.554Z,101984.38
2022-12-05T03:05:52.304Z,101994.22
2022-12-05T03:08:47.003Z,101991.56
2022-12-05T03:11:18.485Z,101988.03
2022-12-05T03:13:49.880Z,101981.13
2022-12-05T03:16:51.686Z,101985.75
2022-12-05T03:19:45.833Z,101988.69
2022-12-05T03:26:02.543Z,101996.50
2022-12-05T03:32:51.457Z,101991.25
2022-12-05T03:35:56.726Z,101998.38
2022-12-05T03:38:49.230Z,101991.34
2022-12-05T03:41:51.329Z,101997.59
2022-12-05T03:44:46.103Z,102009.25
2022-12-05T03:48:07.973Z,102012.47
2022-12-05T03:50:50.064Z,102005.38
2022-12-05T03:53:47.924Z,101993.91
2022-12-05T03:56:52.301Z,101992.16
2022-12-05T03:59:47.311Z,101985.25
2022-12-05T04:02:48.517Z,101982.59
2022-12-05T04:05:47.775Z,101986.16
2022-12-05T04:08:46.881Z,101983.59
2022-12-05T04:11:22.537Z,101987.09
2022-12-05T04:13:55.663Z,101981.06
2022-12-05T04:17:16.367Z,101987.31
2022-12-05T04:20:17.985Z,101976.91
2022-12-05T04:22:50.026Z,101979.63
2022-12-05T04:25:45.859Z,101984.94
2022-12-05T04:28:34.025Z,101984.16
2022-12-05T04:34:47.442Z,101984.25
2022-12-05T04:40:52.896Z,101972.81
2022-12-05T04:43:23.675Z,101973.81
2022-12-05T04:45:53.955Z,101972.94
2022-12-05T04:51:47.954Z,101959.88
2022-12-05T04:54:46.647Z,101959.88
2022-12-05T04:57:23.586Z,101954.63
2022-12-05T04:59:52.385Z,101951.09
2022-12-05T05:02:47.291Z,101951.16
2022-12-05T05:05:19.665Z,101960.03
2022-12-05T05:07:55.847Z,101961.66
2022-12-05T05:11:17.646Z,101952.75
2022-12-05T05:14:16.480Z,101952.97
2022-12-05T05:17:18.690Z,101961.03
2022-12-05T05:19:47.800Z,101962.09
2022-12-05T05:22:21.136Z,101961.31
2022-12-05T05:25:18.003Z,101962.16
2022-12-05T05:32:18.267Z,101969.34
2022-12-05T05:49:17.079Z,101960.75
2022-12-05T05:52:16.212Z,101957.19
2022-12-05T05:55:16.485Z,101956.34
2022-12-05T05:58:17.131Z,101953.78
2022-12-05T06:06:23.987Z,101953.00
2022-12-05T06:09:25.851Z,101954.72
2022-12-05T06:12:18.446Z,101948.69
2022-12-05T06:14:49.813Z,101943.44
2022-12-05T06:17:18.765Z,101944.28
2022-12-05T06:22:46.270Z,101948.75
2022-12-05T06:25:17.947Z,101946.03
2022-12-05T06:27:46.283Z,101947.75
2022-12-05T06:30:17.591Z,101938.91
2022-12-05T06:36:46.301Z,101937.06
2022-12-05T06:39:19.990Z,101940.28
2022-12-05T06:47:47.646Z,101921.94
2022-12-05T06:50:17.856Z,101921.69
2022-12-05T06:52:46.745Z,101919.81
2022-12-05T06:55:16.845Z,101916.16
2022-12-05T07:01:17.135Z,101925.69
2022-12-05T07:04:16.346Z,101917.66
2022-12-05T07:09:55.411Z,101907.56
2022-12-05T07:12:25.005Z,101911.88
2022-12-05T07:15:18.024Z,101903.75
2022-12-05T07:17:46.432Z,101919.56
2022-12-05T07:20:18.894Z,101904.41
2022-12-05T07:22:47.369Z,101901.69
2022-12-05T07:25:21.044Z,101898.06
2022-12-05T07:28:16.897Z,101897.94
2022-12-05T07:33:45.913Z,101890.66
2022-12-05T07:36:20.511Z,101890.66
2022-12-05T07:44:46.677Z,101888.78
2022-12-05T07:47:16.909Z,101886.06
2022-12-05T07:49:48.479Z,101891.22
2022-12-05T07:52:16.758Z,101871.75
2022-12-05T07:54:47.883Z,101876.97
2022-12-05T07:57:16.272Z,101875.28
2022-12-05T07:59:47.564Z,101872.53
2022-12-05T08:02:16.028Z,101864.56
2022-12-05T08:04:47.492Z,101857.38
2022-12-05T08:07:15.595Z,101861.91
2022-12-05T08:09:46.945Z,101853.94
2022-12-05T08:12:18.035Z,101850.31
2022-12-05T08:14:46.339Z,101841.41
2022-12-05T08:17:17.474Z,101851.13
2022-12-05T08:19:45.825Z,101853.78
2022-12-05T08:22:17.266Z,101850.22
2022-12-05T08:24:45.194Z,101845.00
2022-12-05T08:27:16.522Z,101842.34
2022-12-05T08:29:47.898Z,101841.41
2022-12-05T08:32:16.186Z,101833.44
2022-12-05T08:34:47.404Z,101831.63
2022-12-05T08:37:15.914Z,101824.53
2022-12-05T08:39:47.009Z,101828.91
2022-12-05T08:42:18.119Z,101834.22
2022-12-05T08:44:46.410Z,101828.91
2022-12-05T08:47:17.280Z,101819.13
2022-12-05T08:49:45.527Z,101818.19
2022-12-05T08:52:16.855Z,101819.03
2022-12-05T08:54:48.155Z,101808.41
2022-12-05T08:57:17.458Z,101811.91
2022-12-05T08:59:45.675Z,101803.84
2022-12-05T09:02:16.891Z,101802.16
2022-12-05T09:07:46.436Z,101812.78
2022-12-05T09:10:17.894Z,101806.50
2022-12-05T09:12:45.840Z,101797.00
2022-12-05T09:15:17.497Z,101802.31
2022-12-05T09:17:48.680Z,101798.69
2022-12-05T09:20:16.907Z,101797.84
2022-12-05T09:22:45.245Z,101802.25
2022-12-05T09:25:46.237Z,101790.63
2022-12-05T09:28:48.380Z,101790.56
2022-12-05T09:34:46.011Z,101786.13
2022-12-05T09:40:23.707Z,101780.88
2022-12-05T09:43:46.365Z,101786.13
2022-12-05T09:50:44.494Z,101783.38
2022-12-05T09:53:47.113Z,101776.25
2022-12-05T09:56:47.173Z,101781.56
2022-12-05T09:59:46.962Z,101770.09
2022-12-05T10:02:47.734Z,101775.47
2022-12-05T10:05:47.456Z,101772.75
2022-12-05T10:14:47.283Z,101773.50
2022-12-05T10:24:18.236Z,101774.47
2022-12-05T10:26:51.518Z,101770.09
2022-12-05T10:29:51.494Z,101770.84
2022-12-05T10:36:51.245Z,101769.06
2022-12-05T10:39:48.200Z,101760.13
2022-12-05T10:42:48.408Z,101770.78
2022-12-05T10:45:46.762Z,101802.69
2022-12-05T10:48:46.073Z,101789.63
2022-12-05T10:51:46.191Z,101784.47
2022-12-05T10:54:52.601Z,101775.72
2022-12-05T10:57:28.806Z,101774.16
2022-12-05T11:03:45.031Z,101782.22
2022-12-05T11:06:49.789Z,101780.66
2022-12-05T11:09:51.542Z,101773.00
2022-12-05T11:12:43.935Z,101768.84
2022-12-05T11:15:53.741Z,101766.41
2022-12-05T11:21:47.131Z,101768.19
2022-12-05T11:24:46.091Z,101754.91
2022-12-05T11:30:28.301Z,101753.41
2022-12-05T11:33:43.771Z,101746.41
2022-12-05T11:36:49.450Z,101743.81
2022-12-05T11:39:43.412Z,101752.06
2022-12-05T11:43:14.187Z,101744.25
2022-12-05T11:45:51.440Z,101759.34
2022-12-05T11:48:43.792Z,101744.25
2022-12-05T11:58:13.326Z,101746.84
2022-12-05T12:04:47.802Z,101746.91
2022-12-05T12:07:43.808Z,101740.69
2022-12-05T12:10:53.443Z,101744.25
2022-12-05T12:13:46.275Z,101736.44
2022-12-05T12:16:51.214Z,101736.38
2022-12-05T12:19:44.127Z,101734.56
2022-12-05T12:22:46.007Z,101735.38
2022-12-05T12:25:17.155Z,101738.34
2022-12-05T12:31:13.983Z,101726.53
2022-12-05T12:37:55.082Z,101728.25
2022-12-05T12:41:14.443Z,101722.75
2022-12-05T12:44:44.812Z,101724.41
2022-12-05T12:47:31.170Z,101721.75
2022-12-05T12:50:43.999Z,101722.69
2022-12-05T12:53:49.442Z,101712.94
2022-12-05T12:56:48.922Z,101721.75
2022-12-05T12:59:45.182Z,101727.88
2022-12-05T13:02:48.023Z,101717.16
2022-12-05T13:05:49.397Z,101722.47
2022-12-05T13:08:51.789Z,101713.47
2022-12-05T13:11:46.743Z,101722.25
2022-12-05T13:17:42.834Z,101711.44
2022-12-05T13:20:23.858Z,101712.38
2022-12-05T13:22:54.269Z,101718.56
2022-12-05T13:25:52.904Z,101725.59
2022-12-05T13:28:57.788Z,101714.09
2022-12-05T13:31:46.324Z,101716.84
2022-12-05T13:40:53.930Z,101731.13
2022-12-05T13:49:49.097Z,101733.63
2022-12-05T13:55:36.902Z,101732.72
2022-12-05T14:01:56.725Z,101735.38
2022-12-05T14:08:57.426Z,101728.00
2022-12-05T14:11:44.333Z,101730.66
2022-12-05T14:14:58.683Z,101736.69
2022-12-05T14:24:47.987Z,101743.50
2022-12-05T14:31:13.093Z,101755.84
2022-12-05T14:34:46.304Z,101754.91
2022-12-05T14:48:51.894Z,101770.78
2022-12-05T14:52:03.850Z,101769.00
2022-12-05T14:55:14.374Z,101770.00
2022-12-05T15:01:49.718Z,101776.09
2022-12-05T15:05:13.534Z,101781.41
2022-12-05T15:08:16.431Z,101777.91
2022-12-05T15:23:12.912Z,101781.88
2022-12-05T15:30:14.451Z,101793.81
2022-12-05T15:33:17.061Z,101798.50
2022-12-05T15:36:12.994Z,101799.53
2022-12-05T15:39:14.904Z,101806.75
2022-12-05T15:45:15.553Z,101810.34
2022-12-05T15:51:13.574Z,101814.88
2022-12-05T15:54:12.794Z,101814.81
2022-12-05T15:57:14.095Z,101815.50
2022-12-05T16:00:18.366Z,101814.66
2022-12-05T16:03:13.900Z,101819.81
2022-12-05T16:06:14.443Z,101813.50
2022-12-05T16:12:43.783Z,101825.78
2022-12-05T16:15:14.796Z,101809.94
2022-12-05T16:18:16.654Z,101813.44
2022-12-05T16:24:21.600Z,101819.56
2022-12-05T16:27:37.783Z,101823.06
2022-12-05T16:30:13.922Z,101823.06
2022-12-05T16:38:47.462Z,101832.31
2022-12-05T16:42:12.807Z,101822.38
2022-12-05T16:45:14.829Z,101831.84
2022-12-05T16:51:11.819Z,101835.69
2022-12-05T16:54:14.300Z,101842.50
2022-12-05T16:56:43.270Z,101841.25
2022-12-05T17:00:27.995Z,101837.19
2022-12-05T17:03:33.986Z,101836.91
2022-12-05T17:06:15.919Z,101846.03
2022-12-05T17:11:31.709Z,101843.19
2022-12-05T17:15:11.966Z,101845.28
2022-12-05T17:17:42.220Z,101848.31
2022-12-05T17:20:14.676Z,101848.66
2022-12-05T17:23:16.794Z,101841.81
2022-12-05T17:26:14.284Z,101841.66
2022-12-05T17:28:42.775Z,101843.56
2022-12-05T17:31:16.087Z,101844.41
2022-12-05T17:47:12.934Z,101837.50
2022-12-05T17:53:18.186Z,101840.06
2022-12-05T17:56:14.128Z,101845.19
2022-12-05T18:09:14.730Z,101858.72
2022-12-05T18:23:20.568Z,101859.50
2022-12-05T18:26:16.129Z,101856.00
2022-12-05T18:29:11.910Z,101852.59
2022-12-05T18:38:14.828Z,101847.31
2022-12-05T18:40:43.348Z,101854.72
2022-12-05T18:43:17.662Z,101850.44
2022-12-05T18:46:13.552Z,101850.53
2022-12-05T18:49:18.391Z,101847.03
2022-12-05T18:52:12.640Z,101844.44
2022-12-05T18:55:20.878Z,101847.63
2022-12-05T18:58:42.878Z,101849.91
2022-12-05T19:01:18.725Z,101842.91
2022-12-05T19:15:14.129Z,101834.16
2022-12-05T19:21:15.995Z,101820.41
2022-12-05T19:23:46.882Z,101824.75
2022-12-05T19:26:15.039Z,101826.13
2022-12-05T19:29:12.853Z,101821.81
2022-12-05T19:34:26.273Z,101819.84
2022-12-05T19:37:13.046Z,101825.72
2022-12-05T19:42:43.079Z,101814.97
2022-12-05T19:45:17.871Z,101817.72
2022-12-05T19:51:14.049Z,101803.69
2022-12-05T19:56:37.786Z,101797.09
2022-12-05T19:59:19.487Z,101791.75
2022-12-05T20:02:12.554Z,101789.28
2022-12-05T20:07:35.867Z,101776.72
2022-12-05T20:10:18.193Z,101772.41
2022-12-05T20:13:44.791Z,101770.78
2022-12-05T20:15:45.015Z,101767.38
2022-12-05T20:18:19.790Z,101765.66
2022-12-05T20:21:17.223Z,101761.94
2022-12-05T20:23:46.197Z,101764.81
2022-12-05T20:26:44.738Z,101755.75
2022-12-05T20:29:19.179Z,101748.66
2022-12-05T20:32:13.390Z,101743.31
2022-12-05T20:36:19.816Z,101739.59
2022-12-05T20:37:44.375Z,101741.19
2022-12-05T20:40:15.722Z,101736.44
2022-12-05T20:42:46.833Z,101733.66
2022-12-05T20:45:15.143Z,101735.28
2022-12-05T20:47:46.321Z,101733.25
2022-12-05T20:50:15.708Z,101733.81
2022-12-05T20:52:47.040Z,101727.41
2022-12-05T20:55:15.567Z,101728.19
2022-12-05T20:57:43.799Z,101729.13
2022-12-05T21:00:15.189Z,101729.13
2022-12-05T21:02:43.486Z,101729.34
2022-12-05T21:05:14.897Z,101726.66
2022-12-05T21:07:46.971Z,101731.25
2022-12-05T21:10:15.260Z,101726.28
2022-12-05T21:12:43.693Z,101729.16
2022-12-05T21:17:44.879Z,101728.91
2022-12-05T21:20:16.126Z,101723.00
2022-12-05T21:22:44.373Z,101727.97
2022-12-05T21:25:15.444Z,101723.81
2022-12-05T21:27:46.711Z,101723.91
2022-12-05T21:30:14.744Z,101714.28
2022-12-05T21:32:45.970Z,101721.69
2022-12-05T21:35:14.205Z,101717.41
2022-12-05T21:37:47.088Z,101716.00
2022-12-05T21:40:15.401Z,101717.91
2022-12-05T21:42:44.147Z,101718.84
2022-12-05T21:45:15.601Z,101719.81
2022-12-05T21:47:47.153Z,101707.41
2022-12-05T21:50:15.734Z,101711.03
2022-12-05T21:52:47.101Z,101703.91
2022-12-05T21:55:15.384Z,101694.16
2022-12-05T21:57:43.638Z,101699.50
2022-12-05T22:00:15.610Z,101696.84
2022-12-05T22:02:46.901Z,101694.16
2022-12-05T22:05:14.815Z,101692.53
2022-12-05T22:07:46.186Z,101695.22
2022-12-05T22:10:14.626Z,101690.75
2022-12-05T22:12:45.916Z,101687.09
2022-12-05T22:18:15.491Z,101693.13
2022-12-05T22:20:46.739Z,101697.47
2022-12-05T22:23:16.888Z,101692.94
2022-12-05T22:25:45.401Z,101684.03
2022-12-05T22:28:16.638Z,101685.75
2022-12-05T22:30:47.505Z,101687.50
2022-12-05T22:33:18.708Z,101682.88
2022-12-05T22:38:49.500Z,101678.03
2022-12-05T22:41:21.075Z,101679.75
2022-12-05T22:43:55.201Z,101678.78
2022-12-05T22:46:23.718Z,101682.97
2022-12-05T22:48:52.590Z,101682.75
2022-12-05T22:51:23.320Z,101681.72
2022-12-05T22:53:56.183Z,101681.50
2022-12-05T22:56:27.251Z,101681.31
2022-12-05T22:59:15.327Z,101677.59
2022-12-05T23:01:46.981Z,101677.69
2022-12-05T23:04:21.366Z,101680.16
2022-12-05T23:07:19.987Z,101675.59
2022-12-05T23:13:18.201Z,101680.94
2022-12-05T23:15:49.591Z,101685.31
2022-12-05T23:18:18.460Z,101677.28
2022-12-05T23:20:46.981Z,101686.09
2022-12-05T23:23:18.833Z,101683.63
2022-12-05T23:25:47.496Z,101683.25
2022-12-05T23:28:15.872Z,101679.06
2022-12-05T23:30:47.054Z,101688.00
2022-12-05T23:39:45.404Z,101701.13
2022-12-05T23:42:20.761Z,101689.22
2022-12-05T23:45:14.199Z,101692.19
2022-12-05T23:54:53.744Z,101700.84
